SondeTracker

Meteorological Radiosondes Database

Operations
Table of Radiosondes found by: LOVEC71 (121)
Number Type Last Frame [UTC] φ λ Course Speed Altitude Climbing Frequency Nearest City Distance from QTH Status
T2940042 RS41 2022-05-31 01:16:08 50.1421 15.1396 356 ° 2 km/h 284 m -15.6 m/s 401.10 MHz Poděbrady (CZ) 0.00 km FOUND
T3910621 RS41 2022-05-29 01:16:30 50.1358 15.1992 99 ° 37 km/h 1952 m -12.7 m/s 401.10 MHz Poděbrady (CZ) 0.00 km FOUND
T3930505 RS41 2022-05-27 01:28:42 49.897 15.298 112 ° 37 km/h 1393 m -11.8 m/s 401.10 MHz Kutná Hora (CZ) 0.00 km FOUND
T2930805 RS41 2022-05-21 07:12:00 49.8236 15.4012 109 ° 35 km/h 925 m -14.7 m/s 401.10 MHz Čáslav (CZ) 0.00 km FOUND
T2920571 RS41 2022-05-06 01:27:29 50.0229 14.9356 151 ° 15 km/h 466 m -12.3 m/s 401.10 MHz Český Brod (CZ) 0.00 km FOUND
T2940057 RS41 2022-05-05 07:31:00 50.0816 14.6987 64 ° 17 km/h 386 m -13.1 m/s 401.10 MHz Úvaly (CZ) 0.00 km FOUND
T2920403 RS41 2022-04-26 01:10:35 49.9849 14.7931 88 ° 7 km/h 547 m -9.9 m/s 404.20 MHz Říčany (CZ) 0.00 km FOUND
T1920107 RS41 2022-03-25 07:30:33 49.7094 15.0905 204 ° 11 km/h 751 m -10.7 m/s 404.20 MHz Vlašim (CZ) 0.00 km FOUND
T2940150 RS41 2022-03-25 01:02:35 49.7685 14.9956 287 ° 4 km/h 721 m -14.0 m/s 401.10 MHz Vlašim (CZ) 0.00 km FOUND
T2940151 RS41 2022-03-23 07:17:27 50.0265 14.3288 4 ° 4 km/h 445 m -15.4 m/s 404.20 MHz Břevnov (CZ) 0.00 km FOUND
T1750402 RS41 2022-02-26 01:20:40 49.8842 15.3293 125 ° 37 km/h 851 m -11.5 m/s 401.10 MHz Čáslav (CZ) 0.00 km FOUND
T1310348 RS41 2022-02-10 12:57:38 49.9883 14.9748 51 ° 28 km/h 549 m -8.1 m/s 402.701 MHz Český Brod (CZ) 0.00 km FOUND
T1910088 RS41 2022-01-22 02:26:58 50.0845 15.7502 118 ° 56 km/h 581 m -2.3 m/s 402.30 MHz Pardubice (CZ) 0.00 km FOUND
T0921065 RS41 2021-12-12 00:53:46 49.8083 15.2534 104 ° 19 km/h 719 m -16.0 m/s 401.10 MHz Čáslav (CZ) 0.00 km FOUND
S4951563 RS41 2021-11-12 01:04:55 50.0661 15.2002 78 ° 4 km/h 310 m -13.7 m/s 401.10 MHz Kolín (CZ) 0.00 km FOUND
S4950952 RS41 2021-11-11 12:58:28 50.0882 15.1716 324 ° 7 km/h 330 m -13.5 m/s 404.20 MHz Kolín (CZ) 0.00 km FOUND
S4910632 RS41 2021-11-08 07:15:03 49.7628 15.2081 113 ° 33 km/h 840 m -13.6 m/s 404.20 MHz Světlá nad Sázavou (CZ) 0.00 km FOUND
S4941586 RS41 2021-11-07 01:28:07 49.8679 15.0958 47 ° 28 km/h 588 m -12.0 m/s 404.20 MHz Kutná Hora (CZ) 0.00 km FOUND
S5010135 RS41 2021-11-05 13:11:44 50.1234 15.1569 107 ° 26 km/h 290 m -13.6 m/s 404.20 MHz Poděbrady (CZ) 0.00 km FOUND
T1510370 RS41 2021-10-21 19:10:16 49.995 15.2967 74 ° 80 km/h 837 m -10.5 m/s 402.70 MHz Kutná Hora (CZ) 0.00 km FOUND
T0940066 RS41 2021-09-28 01:21:10 49.9765 15.3325 133 ° 13 km/h 667 m -8.9 m/s 401.10 MHz Kutná Hora (CZ) 0.00 km FOUND
T0930213 RS41 2021-09-16 13:12:26 50.0393 15.2693 111 ° 9 km/h 469 m -12.7 m/s 401.10 MHz Kolín (CZ) 0.00 km FOUND
S4951464 RS41 2021-09-05 07:28:36 49.7784 15.1879 304 ° 13 km/h 686 m -13.9 m/s 401.10 MHz Kutná Hora (CZ) 0.00 km FOUND
S4951462 RS41 2021-08-26 13:27:01 49.925 15.1819 119 ° 26 km/h 673 m -9.5 m/s 404.20 MHz Kutná Hora (CZ) 0.00 km FOUND
S4950197 RS41 2021-08-26 07:31:47 49.9166 15.408 124 ° 28 km/h 797 m -14.2 m/s 401.10 MHz Čáslav (CZ) 0.00 km FOUND
S4950100 RS41 2021-08-23 12:54:02 50.0561 14.8678 85 ° 24 km/h 353 m -7.2 m/s 401.10 MHz Český Brod (CZ) 0.00 km FOUND
S4941570 RS41 2021-08-22 13:07:22 50.0693 15.1183 353 ° 7 km/h 326 m -10.6 m/s 404.20 MHz Kolín (CZ) 0.00 km FOUND
S5010140 RS41 2021-08-21 13:41:56 49.9166 15.1741 251 ° 6 km/h 631 m -5.7 m/s 401.10 MHz Kutná Hora (CZ) 0.00 km FOUND
S4941629 RS41 2021-08-18 01:29:20 49.9915 15.26 82 ° 46 km/h 596 m -10.4 m/s 404.20 MHz Kutná Hora (CZ) 0.00 km FOUND
S4941630 RS41 2021-08-17 13:22:35 50.0062 15.4644 81 ° 39 km/h 651 m -9.9 m/s 401.10 MHz Přelouč (CZ) 0.00 km FOUND
S4951542 RS41 2021-08-15 07:32:25 50.0063 15.3327 29 ° 4 km/h 663 m -11.8 m/s 404.20 MHz Kutná Hora (CZ) 0.00 km FOUND
S4950042 RS41 2021-08-14 13:22:16 49.9445 15.2177 65 ° 24 km/h 816 m -13.1 m/s 404.20 MHz Kutná Hora (CZ) 0.00 km FOUND
S4951605 RS41 2021-08-13 07:29:18 49.8938 15.1409 36 ° 7 km/h 601 m -15.3 m/s 404.20 MHz Kutná Hora (CZ) 0.00 km FOUND
S4941627 RS41 2021-08-13 01:26:07 49.9415 15.2572 1 ° 30 km/h 744 m -11.1 m/s 401.10 MHz Kutná Hora (CZ) 0.00 km FOUND
S4941632 RS41 2021-08-12 13:06:15 49.8572 15.034 267 ° 7 km/h 910 m -13.6 m/s 404.20 MHz Vlašim (CZ) 0.00 km FOUND
S4951505 RS41 2021-08-10 07:25:40 50.1467 15.3811 45 ° 2 km/h 335 m -15.6 m/s 401.10 MHz Chlumec nad Cidlinou (CZ) 0.00 km FOUND
S4951607 RS41 2021-08-07 01:02:24 49.9062 15.3153 102 ° 39 km/h 629 m -13.6 m/s 404.20 MHz Čáslav (CZ) 0.00 km FOUND
S3220306 RS41 2021-07-23 07:24:31 49.9456 14.2757 222 ° 6 km/h 397 m -15.0 m/s 401.10 MHz Černošice (CZ) 0.00 km FOUND
S4250378 RS41 2021-07-20 01:17:19 50.1427 15.0625 118 ° 15 km/h 289 m -10.3 m/s 401.10 MHz Poděbrady (CZ) 0.00 km FOUND
S3950346 RS41 2021-05-21 07:22:59 49.8525 15.3876 31 ° 31 km/h 793 m -12.9 m/s 401.10 MHz Čáslav (CZ) 0.00 km FOUND
S4021124 RS41 2021-05-09 07:22:54 49.883 15.2161 360 ° 31 km/h 632 m -13.6 m/s 401.10 MHz Kutná Hora (CZ) 0.00 km FOUND
S3220301 RS41 2021-04-21 07:22:32 49.8647 15.0787 101 ° 15 km/h 679 m -15.3 m/s 401.10 MHz Kutná Hora (CZ) 0.00 km FOUND
S3141344 RS41 2021-04-21 01:05:28 49.8769 15.1108 119 ° 17 km/h 663 m -13.6 m/s 404.20 MHz Kutná Hora (CZ) 0.00 km FOUND
S3210062 RS41 2021-04-15 01:09:14 50.0463 14.925 105 ° 26 km/h 366 m -13.5 m/s 404.20 MHz Český Brod (CZ) 0.00 km FOUND
S3220477 RS41 2021-03-26 07:24:05 49.9083 15.1163 77 ° 24 km/h 600 m -11.1 m/s 401.10 MHz Kutná Hora (CZ) 0.00 km FOUND
S3141623 RS41 2021-03-26 01:25:56 50.0071 15.3187 12 ° 26 km/h 463 m -12.4 m/s 404.20 MHz Kutná Hora (CZ) 0.00 km FOUND
S3150401 RS41 2021-03-15 01:15:02 49.7411 15.175 105 ° 35 km/h 745 m -4.7 m/s 401.10 MHz Světlá nad Sázavou (CZ) 0.00 km FOUND
S2020240 RS41 2021-03-03 07:33:23 49.8647 15.1385 51 ° 15 km/h 639 m -9.0 m/s 404.20 MHz Kutná Hora (CZ) 0.00 km FOUND
S2020227 RS41 2021-02-25 13:13:22 50.1648 15.0844 295 ° 7 km/h 338 m -10.6 m/s 401.10 MHz Poděbrady (CZ) 0.00 km FOUND
S2020225 RS41 2021-02-25 07:25:56 50.074 14.9041 103 ° 4 km/h 300 m -11.3 m/s 404.20 MHz Český Brod (CZ) 0.00 km FOUND
S2020219 RS41 2021-02-23 00:59:09 49.8276 15.1801 101 ° 28 km/h 717 m -13.3 m/s 404.20 MHz Kutná Hora (CZ) 0.00 km FOUND
S2020234 RS41 2021-02-22 01:16:16 50.1856 15.2245 295 ° 26 km/h 376 m -10.7 m/s 401.10 MHz Poděbrady (CZ) 0.00 km FOUND
R3251132 RS41 2021-01-20 19:15:32 49.8742 15.2732 18 ° 41 km/h 551 m -4.9 m/s 402.70 MHz Kutná Hora (CZ) 0.00 km FOUND
S2251259 RS41 2020-12-24 13:13:59 50.0637 14.9876 59 ° 37 km/h 343 m -13.4 m/s 402.30 MHz Český Brod (CZ) 0.00 km FOUND
S2020254 RS41 2020-12-19 01:14:24 50.1201 15.3011 331 ° 20 km/h 597 m -11.7 m/s 404.20 MHz Chlumec nad Cidlinou (CZ) 0.00 km FOUND
S1810559 RS41 2020-12-02 07:24:28 50.0962 14.5838 282 ° 19 km/h 345 m -12.3 m/s 404.20 MHz Úvaly (CZ) 0.00 km FOUND
S0820406 RS41 2020-11-25 07:20:49 49.8497 15.2482 354 ° 20 km/h 723 m -12.3 m/s 401.10 MHz Kutná Hora (CZ) 0.00 km FOUND
P5020605 RS41 2020-11-10 01:25:26 50.0208 15.2388 297 ° 11 km/h 440 m -10.0 m/s 404.20 MHz Kolín (CZ) 0.00 km FOUND
S0830270 RS41 2020-11-03 07:25:58 50.1844 15.1333 166 ° 30 km/h 338 m -14.3 m/s 401.10 MHz Poděbrady (CZ) 0.00 km FOUND
S0830360 RS41 2020-11-03 01:42:57 50.1153 15.272 37 ° 13 km/h 271 m -6.1 m/s 404.20 MHz Kolín (CZ) 0.00 km FOUND
R2321639 RS41 2020-10-23 07:30:09 50.0304 15.3698 59 ° 13 km/h 628 m -10.6 m/s 402.70 MHz Kutná Hora (CZ) 0.00 km FOUND
R2331406 RS41 2020-10-22 07:11:16 50.0149 14.5128 162 ° 7 km/h 322 m -2.1 m/s 402.70 MHz Jesenice (CZ) 0.00 km FOUND
S0740615 RS41 2020-10-17 13:16:20 49.8362 15.2692 141 ° 20 km/h 806 m -10.7 m/s 401.10 MHz Čáslav (CZ) 0.00 km FOUND
S0910777 RS41 2020-10-10 07:22:09 50.2585 15.2358 321 ° 7 km/h 340 m -14.4 m/s 401.10 MHz Poděbrady (CZ) 0.00 km FOUND
S0820232 RS41 2020-09-24 07:24:08 50.203 15.2817 5 ° 9 km/h 335 m -13.7 m/s 404.20 MHz Poděbrady (CZ) 0.00 km FOUND
R5140192 RS41 2020-09-11 07:39:08 50.0994 15.2685 301 ° 7 km/h 303 m -9.4 m/s 401.10 MHz Kolín (CZ) 0.00 km FOUND
R5130943 RS41 2020-09-07 07:22:08 50.1017 15.4318 143 ° 26 km/h 1704 m -17.5 m/s 401.10 MHz Chlumec nad Cidlinou (CZ) 0.00 km FOUND
R5130684 RS41 2020-09-05 07:24:59 50.1084 15.4784 358 ° 15 km/h 404 m -11.4 m/s 401.10 MHz Chlumec nad Cidlinou (CZ) 0.00 km FOUND
R5150021 RS41 2020-08-25 01:14:09 50.1014 15.2738 97 ° 28 km/h 353 m -13.0 m/s 401.10 MHz Kolín (CZ) 0.00 km FOUND
R5130906 RS41 2020-08-24 07:27:47 50.154 15.2842 258 ° 15 km/h 443 m -11.7 m/s 401.10 MHz Poděbrady (CZ) 0.00 km FOUND
R5130717 RS41 2020-08-23 07:22:54 50.2295 15.2674 79 ° 13 km/h 344 m -13.1 m/s 401.10 MHz Poděbrady (CZ) 0.00 km FOUND
R5130716 RS41 2020-08-23 01:18:37 50.1648 15.1853 84 ° 17 km/h 329 m -13.0 m/s 401.10 MHz Poděbrady (CZ) 0.00 km FOUND
R5130673 RS41 2020-08-21 19:35:15 50.0322 15.0675 358 ° 46 km/h 432 m -11.7 m/s 404.20 MHz Kolín (CZ) 0.00 km FOUND
R3860594 RS41 2020-07-23 07:40:41 49.956 15.3609 2 ° 11 km/h 797 m -8.6 m/s 401.10 MHz Čáslav (CZ) 0.00 km FOUND
R3860655 RS41 2020-07-23 01:25:23 50.0168 15.1041 267 ° 20 km/h 478 m -12.3 m/s 401.10 MHz Kolín (CZ) 0.00 km FOUND
R3860593 RS41 2020-07-21 07:29:45 49.9806 15.2699 186 ° 7 km/h 580 m -9.6 m/s 401.10 MHz Kutná Hora (CZ) 0.00 km FOUND
R3860596 RS41 2020-07-21 01:25:00 50.0093 15.0995 193 ° 13 km/h 474 m -13.4 m/s 401.10 MHz Kolín (CZ) 0.00 km FOUND
R3860638 RS41 2020-07-10 01:05:54 50.0122 15.1359 39 ° 44 km/h 435 m -16.1 m/s 401.10 MHz Kolín (CZ) 0.00 km FOUND
R3770467 RS41 2020-07-09 19:23:05 49.9188 15.2801 33 ° 26 km/h 619 m -10.5 m/s 404.20 MHz Kutná Hora (CZ) 0.00 km FOUND
R3770466 RS41 2020-07-01 07:36:52 50.1834 15.3562 50 ° 11 km/h 553 m -7.0 m/s 401.10 MHz Chlumec nad Cidlinou (CZ) 0.00 km FOUND
R3850600 RS41 2020-07-01 01:26:06 50.1419 15.4198 79 ° 33 km/h 824 m -9.8 m/s 401.10 MHz Chlumec nad Cidlinou (CZ) 0.00 km FOUND
R3130919 RS41 2020-05-23 13:07:23 49.9591 15.1173 169 ° 11 km/h 631 m -13.7 m/s 401.10 MHz Kolín (CZ) 0.00 km FOUND
R3130901 RS41 2020-05-16 01:26:48 50.0263 15.4714 156 ° 26 km/h 606 m -10.3 m/s 401.10 MHz Přelouč (CZ) 0.00 km FOUND
R3130777 RS41 2020-05-15 13:16:20 50.1042 15.0202 157 ° 4 km/h 276 m -11.8 m/s 404.20 MHz Poděbrady (CZ) 0.00 km FOUND
R3130905 RS41 2020-05-11 01:35:49 50.1407 15.0812 356 ° 4 km/h 300 m -8.7 m/s 401.10 MHz Poděbrady (CZ) 0.00 km FOUND
R3130786 RS41 2020-05-02 13:11:47 50.0124 15.2067 90 ° 52 km/h 2065 m -11.4 m/s 401.10 MHz Kolín (CZ) 0.00 km FOUND
R3140685 RS41 2020-05-02 07:23:45 49.9637 15.1565 84 ° 43 km/h 772 m -10.6 m/s 401.10 MHz Kolín (CZ) 0.00 km FOUND
R3140534 RS41 2020-05-01 13:08:26 50.2133 15.0899 58 ° 24 km/h 593 m -11.4 m/s 401.10 MHz Nymburk (CZ) 0.00 km FOUND
R3130843 RS41 2020-04-16 13:05:12 49.951 15.4577 83 ° 11 km/h 824 m -11.1 m/s 401.10 MHz Čáslav (CZ) 0.00 km FOUND
R3230857 RS41 2020-04-08 13:06:29 50.0557 15.2974 334 ° 15 km/h 336 m -11.1 m/s 401.10 MHz Kolín (CZ) 0.00 km FOUND
R3131068 RS41 2020-04-08 01:03:08 50.0547 15.0317 283 ° 13 km/h 312 m -8.2 m/s 401.10 MHz Poděbrady (CZ) 0.00 km FOUND
R3120654 RS41 2020-04-07 07:25:27 50.0339 15.4329 329 ° 7 km/h 1440 m -10.7 m/s 401.10 MHz Přelouč (CZ) 0.00 km FOUND
R3230964 RS41 2020-03-21 13:16:07 49.8797 15.2011 208 ° 33 km/h 620 m -11.1 m/s 401.10 MHz Kutná Hora (CZ) 0.00 km FOUND
R3140074 RS41 2020-03-20 07:19:52 50.0845 15.1018 259 ° 11 km/h 337 m -14.1 m/s 401.10 MHz Poděbrady (CZ) 0.00 km FOUND
R3140075 RS41 2020-03-20 01:01:58 50.1115 15.0711 288 ° 15 km/h 300 m -15.4 m/s 401.10 MHz Poděbrady (CZ) 0.00 km FOUND
R3230962 RS41 2020-03-19 13:05:30 50.0281 15.0135 108 ° 22 km/h 2213 m -14.2 m/s 401.10 MHz Český Brod (CZ) 0.00 km FOUND
R3150846 RS41 2020-03-10 01:30:09 50.0017 15.2848 102 ° 37 km/h 503 m -7.9 m/s 401.10 MHz Kutná Hora (CZ) 0.00 km FOUND
R3140038 RS41 2020-03-03 07:43:56 50.2976 14.8126 70 ° 20 km/h 341 m -11.3 m/s 401.10 MHz Benátky nad Jizerou (CZ) 0.00 km FOUND
R2751115 RS41 2020-02-12 13:15:45 50.1426 14.9423 102 ° 72 km/h 1822 m -2.8 m/s 402.30 MHz Nymburk (CZ) 0.00 km FOUND
R2751064 RS41 2020-02-05 07:55:44 49.9547 14.415 191 ° 81 km/h 1651 m -3.8 m/s 405.10 MHz Černošice (CZ) 0.00 km FOUND
P3420130 RS41 2020-01-28 06:36:10 49.6512 14.6319 30 ° 44 km/h 678 m -10.4 m/s 402.700 MHz Sedlčany (CZ) 0.00 km FOUND
P2140125 RS41 2020-01-15 07:16:33 49.7997 14.3584 43 ° 13 km/h 489 m -5.7 m/s 402.70 MHz Mníšek pod Brdy (CZ) 0.00 km FOUND
P2130807 RS41 2020-01-14 07:15:53 49.5915 14.6213 17 ° 35 km/h 774 m -5.8 m/s 402.70 MHz Sedlčany (CZ) 0.00 km FOUND
P2130713 RS41 2020-01-14 01:26:41 49.5203 14.7925 34 ° 30 km/h 798 m -9.2 m/s 402.700 MHz Tábor (CZ) 0.00 km FOUND
P2130901 RS41 2020-01-10 01:28:14 49.947 14.8856 82 ° 24 km/h 1278 m -5.9 m/s 402.70 MHz Český Brod (CZ) 0.00 km FOUND
P3350093 RS41 2020-01-03 01:37:29 50.3058 15.3509 76 ° 30 km/h 907 m -8.7 m/s 402.70 MHz Nový Bydžov (CZ) 0.00 km FOUND
P3340730 RS41 2020-01-02 19:04:11 50.1423 14.8778 11 ° 52 km/h 3105 m -11.1 m/s 402.70 MHz Lysá nad Labem (CZ) 0.00 km FOUND
P3410709 RS41 2019-12-09 06:48:30 49.7954 14.2841 84 ° 87 km/h 3194 m -10.7 m/s 402.70 MHz Mníšek pod Brdy (CZ) 0.00 km FOUND
P3421040 RS41 2019-12-05 07:02:32 50.0046 14.7862 65 ° 30 km/h 2875 m -11.0 m/s 402.70 MHz Úvaly (CZ) 0.00 km FOUND
P3320769 RS41 2019-11-23 01:30:35 49.9935 14.8872 353 ° 46 km/h 3520 m -5.6 m/s 402.700 MHz Český Brod (CZ) 0.00 km FOUND
P3311151 RS41 2019-11-22 07:04:18 49.8456 14.5013 33 ° 24 km/h 3176 m -6.4 m/s 402.70 MHz Týnec nad Sázavou (CZ) 0.00 km FOUND
P2350837 RS41 2019-11-16 04:38:31 49.8581 15.1074 26 ° 96 km/h 3945 m -11.8 m/s 403.40 MHz Kutná Hora (CZ) 0.00 km FOUND
P3311181 RS41 2019-11-04 07:56:51 50.0273 15.0977 63 ° 43 km/h 2816 m -5.8 m/s 402.70 MHz Kolín (CZ) 0.00 km FOUND
P2130066 RS41 2019-10-19 07:32:41 50.0384 14.3363 47 ° 52 km/h 3783 m -6.0 m/s 402.70 MHz Břevnov (CZ) 0.00 km FOUND
P5020527 RS41 2019-09-24 07:18:38 49.8612 15.1378 171 ° 11 km/h 1409 m -15.3 m/s 401.10 MHz Kutná Hora (CZ) 0.00 km FOUND
R1020527 RS41 2019-09-24 01:16:21 49.8895 15.2154 101 ° 6 km/h 3000 m -10.4 m/s 404.20 MHz Kutná Hora (CZ) 0.00 km FOUND
P5040383 RS41 2019-09-04 07:27:55 49.8677 14.8981 91 ° 19 km/h 2519 m -10.4 m/s 401.10 MHz Benešov (CZ) 0.00 km FOUND
P5040390 RS41 2019-08-11 07:22:19 50.2345 15.5536 89 ° 28 km/h 1872 m -14.3 m/s 401.10 MHz Nový Bydžov (CZ) 0.00 km FOUND
P5040395 RS41 2019-08-09 13:00:39 49.7961 15.2969 32 ° 9 km/h 1590 m -13.5 m/s 401.10 MHz Čáslav (CZ) 0.00 km FOUND
P3330560 RS41 2019-08-06 13:04:41 50.0273 15.302 84 ° 28 km/h 1717 m -16.5 m/s 401.10 MHz Kolín (CZ) 0.00 km FOUND
P5040403 RS41 2019-08-02 13:11:18 50.1882 15.0965 123 ° 26 km/h 3094 m -11.4 m/s 404.20 MHz Nymburk (CZ) 0.00 km FOUND